Time,TemperatureF,DewpointF,PressureIn,WindDirection,WindDirectionDegrees,WindSpeedMPH,WindSpeedGustMPH,Humidity,HourlyPrecipIn,Conditions,Clouds,dailyrainin,SoftwareType,DateUTC
2013-05-17 00:07:00,52.7,41.0,29.89,NE,50,2.0,4.0,65,0.00,,,0.00,weatherlink.com 1.10,2013-05-17 04:07:00,
2013-05-17 00:23:00,52.1,41.0,29.89,East,82,4.0,9.0,66,0.00,,,0.00,weatherlink.com 1.10,2013-05-17 04:23:00,
2013-05-17 00:38:00,51.3,41.0,29.90,NNE,27,0.0,6.0,67,0.00,,,0.00,weatherlink.com 1.10,2013-05-17 04:38:00,
2013-05-17 00:53:00,50.2,41.0,29.90,WNW,302,0.0,1.0,70,0.00,,,0.00,weatherlink.com 1.10,2013-05-17 04:53:00,
2013-05-17 01:08:00,48.7,41.0,29.91,NNW,328,0.0,1.0,74,0.00,,,0.00,weatherlink.com 1.10,2013-05-17 05:08:00,
2013-05-17 01:23:00,47.9,40.0,29.92,WNW,295,0.0,1.0,75,0.00,,,0.00,weatherlink.com 1.10,2013-05-17 05:23:00,
2013-05-17 01:38:00,46.3,40.0,29.92,NNW,342,0.0,1.0,80,0.00,,,0.00,weatherlink.com 1.10,2013-05-17 05:38:00,
2013-05-17 01:53:00,46.0,40.0,29.92,NE,51,1.0,1.0,80,0.00,,,0.00,weatherlink.com 1.10,2013-05-17 05:53:00,
2013-05-17 02:08:00,46.3,39.0,29.93,NNE,29,0.0,1.0,77,0.00,,,0.00,weatherlink.com 1.10,2013-05-17 06:08:00,
2013-05-17 02:23:00,45.2,39.0,29.93,NNE,29,1.0,1.0,80,0.00,,,0.00,weatherlink.com 1.10,2013-05-17 06:23:00,
2013-05-17 02:38:00,44.7,39.0,29.94,NE,39,0.0,1.0,81,0.00,,,0.00,weatherlink.com 1.10,2013-05-17 06:38:00,
2013-05-17 02:53:00,44.1,39.0,29.94,NNE,24,0.0,1.0,82,0.00,,,0.00,weatherlink.com 1.10,2013-05-17 06:53:00,
2013-05-17 03:08:00,43.0,39.0,29.95,NNW,334,0.0,0.0,85,0.00,,,0.00,weatherlink.com 1.10,2013-05-17 07:08:00,
2013-05-17 03:23:00,42.7,39.0,29.95,NNW,335,0.0,1.0,88,0.00,,,0.00,weatherlink.com 1.10,2013-05-17 07:23:00,
2013-05-17 03:38:00,42.6,40.0,29.96,WNW,288,0.0,1.0,89,0.00,,,0.00,weatherlink.com 1.10,2013-05-17 07:38:00,
2013-05-17 03:53:00,42.5,40.0,29.96,NW,313,0.0,1.0,89,0.00,,,0.00,weatherlink.com 1.10,2013-05-17 07:53:00,
2013-05-17 04:08:00,43.4,40.0,29.96,NW,313,0.0,0.0,88,0.00,,,0.00,weatherlink.com 1.10,2013-05-17 08:08:00,
2013-05-17 04:23:00,43.9,40.0,29.96,WNW,295,0.0,2.0,86,0.00,,,0.00,weatherlink.com 1.10,2013-05-17 08:23:00,
2013-05-17 04:38:00,44.3,40.0,29.96,NW,317,0.0,2.0,85,0.00,,,0.00,weatherlink.com 1.10,2013-05-17 08:38:00,
2013-05-17 04:53:00,44.4,40.0,29.97,ESE,107,1.0,1.0,84,0.00,,,0.00,weatherlink.com 1.10,2013-05-17 08:53:00,
2013-05-17 05:08:00,44.1,40.0,29.98,NE,44,0.0,1.0,86,0.00,,,0.00,weatherlink.com 1.10,2013-05-17 09:08:00,
2013-05-17 05:23:00,43.5,40.0,29.99,NW,304,0.0,1.0,87,0.00,,,0.00,weatherlink.com 1.10,2013-05-17 09:23:00,
2013-05-17 05:39:00,43.8,41.0,30.00,NW,304,0.0,0.0,88,0.00,,,0.00,weatherlink.com 1.10,2013-05-17 09:39:00,
2013-05-17 05:54:00,44.2,41.0,30.01,NW,304,0.0,0.0,88,0.00,,,0.00,weatherlink.com 1.10,2013-05-17 09:54:00,
2013-05-17 06:09:00,44.9,42.0,30.02,NE,50,1.0,1.0,88,0.00,,,0.00,weatherlink.com 1.10,2013-05-17 10:09:00,
2013-05-17 06:24:00,45.7,42.0,30.02,NE,49,0.0,1.0,87,0.00,,,0.00,weatherlink.com 1.10,2013-05-17 10:24:00,
2013-05-17 06:39:00,46.9,42.0,30.03,ESE,110,0.0,1.0,84,0.00,,,0.00,weatherlink.com 1.10,2013-05-17 10:39:00,
2013-05-17 06:54:00,47.5,43.0,30.04,ESE,110,0.0,0.0,85,0.00,,,0.00,weatherlink.com 1.10,2013-05-17 10:54:00,
2013-05-17 07:09:00,48.6,43.0,30.05,NNW,348,0.0,1.0,81,0.00,,,0.00,weatherlink.com 1.10,2013-05-17 11:09:00,
2013-05-17 07:24:00,49.3,43.0,30.05,North,10,0.0,1.0,80,0.00,,,0.00,weatherlink.com 1.10,2013-05-17 11:24:00,
2013-05-17 07:39:00,49.7,43.0,30.06,East,94,0.0,1.0,79,0.00,,,0.00,weatherlink.com 1.10,2013-05-17 11:39:00,
2013-05-17 07:54:00,50.9,43.0,30.06,ENE,78,0.0,1.0,75,0.00,,,0.00,weatherlink.com 1.10,2013-05-17 11:54:00,
2013-05-17 08:09:00,51.9,42.0,30.07,SE,141,0.0,2.0,70,0.00,,,0.00,weatherlink.com 1.10,2013-05-17 12:09:00,
2013-05-17 08:24:00,51.7,43.0,30.08,SE,140,0.0,2.0,71,0.00,,,0.00,weatherlink.com 1.10,2013-05-17 12:24:00,
2013-05-17 08:39:00,52.3,43.0,30.08,East,99,0.0,4.0,70,0.00,,,0.00,weatherlink.com 1.10,2013-05-17 12:39:00,
2013-05-17 08:54:00,54.5,42.0,30.08,ESE,113,5.0,14.0,62,0.00,,,0.00,weatherlink.com 1.10,2013-05-17 12:54:00,
2013-05-17 09:09:00,54.6,42.0,30.08,ESE,118,3.0,9.0,62,0.00,,,0.00,weatherlink.com 1.10,2013-05-17 13:09:00,
2013-05-17 09:24:00,56.4,42.0,30.08,East,101,6.0,7.0,59,0.00,,,0.00,weatherlink.com 1.10,2013-05-17 13:24:00,
2013-05-17 09:39:00,55.5,40.0,30.09,East,94,9.0,11.0,57,0.00,,,0.00,weatherlink.com 1.10,2013-05-17 13:39:00,
2013-05-17 09:54:00,56.5,40.0,30.09,ENE,67,8.0,11.0,55,0.00,,,0.00,weatherlink.com 1.10,2013-05-17 13:54:00,
2013-05-17 10:09:00,57.8,41.0,30.09,North,6,1.0,12.0,54,0.00,,,0.00,weatherlink.com 1.10,2013-05-17 14:09:00,
2013-05-17 10:24:00,58.8,41.0,30.10,NNW,340,5.0,13.0,53,0.00,,,0.00,weatherlink.com 1.10,2013-05-17 14:24:00,
2013-05-17 10:39:00,59.0,40.0,30.10,ENE,65,5.0,12.0,49,0.00,,,0.00,weatherlink.com 1.10,2013-05-17 14:39:00,
2013-05-17 10:54:00,60.3,41.0,30.10,East,95,6.0,9.0,50,0.00,,,0.00,weatherlink.com 1.10,2013-05-17 14:54:00,
2013-05-17 11:09:00,60.0,41.0,30.10,NNW,345,1.0,12.0,50,0.00,,,0.00,weatherlink.com 1.10,2013-05-17 15:09:00,
2013-05-17 11:24:00,60.1,43.0,30.10,SE,126,6.0,14.0,53,0.00,,,0.00,weatherlink.com 1.10,2013-05-17 15:24:00,
2013-05-17 11:39:00,61.3,41.0,30.10,ESE,113,5.0,11.0,48,0.00,,,0.00,weatherlink.com 1.10,2013-05-17 15:39:00,
2013-05-17 11:54:00,61.5,41.0,30.11,NNE,18,6.0,12.0,47,0.00,,,0.00,weatherlink.com 1.10,2013-05-17 15:54:00,
2013-05-17 12:09:00,61.9,42.0,30.10,SE,136,4.0,12.0,48,0.00,,,0.00,weatherlink.com 1.10,2013-05-17 16:09:00,
2013-05-17 12:24:00,62.9,41.0,30.10,SSE,166,5.0,11.0,45,0.00,,,0.00,weatherlink.com 1.10,2013-05-17 16:24:00,
2013-05-17 12:39:00,63.4,42.0,30.10,NNE,30,4.0,11.0,45,0.00,,,0.00,weatherlink.com 1.10,2013-05-17 16:39:00,
2013-05-17 12:54:00,63.5,43.0,30.10,ENE,77,3.0,10.0,47,0.00,,,0.00,weatherlink.com 1.10,2013-05-17 16:54:00,
2013-05-17 13:10:00,63.5,41.0,30.10,ENE,78,5.0,11.0,44,0.00,,,0.00,weatherlink.com 1.10,2013-05-17 17:10:00,
2013-05-17 13:25:00,64.1,40.0,30.10,SE,140,1.0,9.0,42,0.00,,,0.00,weatherlink.com 1.10,2013-05-17 17:25:00,
2013-05-17 13:40:00,64.3,42.0,30.10,ESE,111,4.0,12.0,45,0.00,,,0.00,weatherlink.com 1.10,2013-05-17 17:40:00,
2013-05-17 13:55:00,64.7,43.0,30.09,ENE,58,7.0,11.0,45,0.00,,,0.00,weatherlink.com 1.10,2013-05-17 17:55:00,
2013-05-17 14:10:00,65.4,43.0,30.10,NE,47,4.0,11.0,44,0.00,,,0.00,weatherlink.com 1.10,2013-05-17 18:10:00,
2013-05-17 14:25:00,64.9,40.0,30.10,ESE,120,3.0,12.0,40,0.00,,,0.00,weatherlink.com 1.10,2013-05-17 18:25:00,
2013-05-17 14:40:00,65.4,42.0,30.10,ESE,115,3.0,11.0,42,0.00,,,0.00,weatherlink.com 1.10,2013-05-17 18:40:00,
2013-05-17 14:55:00,65.4,41.0,30.10,SSE,162,2.0,12.0,41,0.00,,,0.00,weatherlink.com 1.10,2013-05-17 18:55:00,
2013-05-17 15:10:00,65.4,41.0,30.10,ENE,72,4.0,9.0,41,0.00,,,0.00,weatherlink.com 1.10,2013-05-17 19:10:00,
2013-05-17 15:25:00,65.4,42.0,30.10,ENE,68,8.0,8.0,43,0.00,,,0.00,weatherlink.com 1.10,2013-05-17 19:25:00,
2013-05-17 15:40:00,66.8,41.0,30.10,NE,49,2.0,8.0,39,0.00,,,0.00,weatherlink.com 1.10,2013-05-17 19:40:00,
2013-05-17 15:55:00,66.3,40.0,30.10,East,96,5.0,8.0,39,0.00,,,0.00,weatherlink.com 1.10,2013-05-17 19:55:00,
2013-05-17 16:10:00,66.5,42.0,30.10,East,86,3.0,9.0,41,0.00,,,0.00,weatherlink.com 1.10,2013-05-17 20:10:00,
2013-05-17 16:40:00,66.2,41.0,30.11,ENE,63,1.0,11.0,40,0.00,,,0.00,weatherlink.com 1.10,2013-05-17 20:40:00,
2013-05-17 16:55:00,65.1,39.0,30.11,East,80,4.0,8.0,39,0.00,,,0.00,weatherlink.com 1.10,2013-05-17 20:55:00,
2013-05-17 17:10:00,65.1,41.0,30.11,East,100,6.0,8.0,41,0.00,,,0.00,weatherlink.com 1.10,2013-05-17 21:10:00,
2013-05-17 17:25:00,65.2,41.0,30.11,ENE,57,0.0,6.0,41,0.00,,,0.00,weatherlink.com 1.10,2013-05-17 21:25:00,
2013-05-17 17:40:00,65.0,41.0,30.11,ENE,77,2.0,3.0,41,0.00,,,0.00,weatherlink.com 1.10,2013-05-17 21:40:00,
2013-05-17 17:55:00,65.2,39.0,30.11,WNW,286,0.0,1.0,39,0.00,,,0.00,weatherlink.com 1.10,2013-05-17 21:55:00,
2013-05-17 18:10:00,64.3,41.0,30.11,North,352,0.0,2.0,42,0.00,,,0.00,weatherlink.com 1.10,2013-05-17 22:10:00,
2013-05-17 18:25:00,64.1,42.0,30.12,North,8,0.0,1.0,45,0.00,,,0.00,weatherlink.com 1.10,2013-05-17 22:25:00,
2013-05-17 18:40:00,64.5,41.0,30.12,NNW,332,1.0,2.0,42,0.00,,,0.00,weatherlink.com 1.10,2013-05-17 22:40:00,
2013-05-17 18:55:00,64.2,41.0,30.12,ENE,58,1.0,3.0,43,0.00,,,0.00,weatherlink.com 1.10,2013-05-17 22:55:00,
2013-05-17 19:10:00,63.8,42.0,30.13,NNE,18,0.0,2.0,45,0.00,,,0.00,weatherlink.com 1.10,2013-05-17 23:10:00,
2013-05-17 19:25:00,60.1,43.0,30.13,NNE,30,1.0,1.0,53,0.00,,,0.00,weatherlink.com 1.10,2013-05-17 23:25:00,
2013-05-17 19:40:00,57.6,43.0,30.14,NNE,25,0.0,1.0,59,0.00,,,0.00,weatherlink.com 1.10,2013-05-17 23:40:00,
2013-05-17 19:55:00,56.1,44.0,30.14,NNE,27,1.0,1.0,65,0.00,,,0.00,weatherlink.com 1.10,2013-05-17 23:55:00,
2013-05-17 20:10:00,54.9,44.0,30.14,NNE,14,0.0,1.0,68,0.00,,,0.00,weatherlink.com 1.10,2013-05-18 00:10:00,
2013-05-17 20:25:00,54.1,44.0,30.15,NNE,26,1.0,2.0,69,0.00,,,0.00,weatherlink.com 1.10,2013-05-18 00:25:00,
2013-05-17 20:40:00,52.8,44.0,30.15,NNE,26,0.0,1.0,71,0.00,,,0.00,weatherlink.com 1.10,2013-05-18 00:40:00,
2013-05-17 20:55:00,51.7,44.0,30.16,NNE,26,1.0,1.0,74,0.00,,,0.00,weatherlink.com 1.10,2013-05-18 00:55:00,
2013-05-17 21:10:00,50.9,43.0,30.17,NNE,26,0.0,1.0,75,0.00,,,0.00,weatherlink.com 1.10,2013-05-18 01:10:00,
2013-05-17 21:25:00,49.9,43.0,30.18,NNE,23,0.0,2.0,78,0.00,,,0.00,weatherlink.com 1.10,2013-05-18 01:25:00,
2013-05-17 21:40:00,49.2,43.0,30.18,NNE,23,0.0,1.0,80,0.00,,,0.00,weatherlink.com 1.10,2013-05-18 01:40:00,
2013-05-17 21:55:00,49.1,44.0,30.18,NNE,23,0.0,1.0,82,0.00,,,0.00,weatherlink.com 1.10,2013-05-18 01:55:00,
2013-05-17 22:10:00,48.0,43.0,30.19,NNE,23,0.0,0.0,84,0.00,,,0.00,weatherlink.com 1.10,2013-05-18 02:10:00,
2013-05-17 22:25:00,47.3,43.0,30.19,NNE,23,0.0,0.0,85,0.00,,,0.00,weatherlink.com 1.10,2013-05-18 02:25:00,
2013-05-17 22:40:00,47.1,44.0,30.20,NNE,23,0.0,0.0,87,0.00,,,0.00,weatherlink.com 1.10,2013-05-18 02:40:00,
2013-05-17 22:56:00,47.9,44.0,30.20,NNE,21,0.0,2.0,86,0.00,,,0.00,weatherlink.com 1.10,2013-05-18 02:56:00,
2013-05-17 23:11:00,48.8,44.0,30.20,NNE,25,0.0,2.0,84,0.00,,,0.00,weatherlink.com 1.10,2013-05-18 03:11:00,
2013-05-17 23:26:00,48.0,43.0,30.20,NNE,25,0.0,1.0,82,0.00,,,0.00,weatherlink.com 1.10,2013-05-18 03:26:00,
2013-05-17 23:41:00,46.0,42.0,30.20,NNE,25,0.0,0.0,86,0.00,,,0.00,weatherlink.com 1.10,2013-05-18 03:41:00,
2013-05-17 23:56:00,45.3,42.0,30.21,NNE,25,0.0,0.0,88,0.00,,,0.00,weatherlink.com 1.10,2013-05-18 03:56:00,